sensor_id;sensor_type;location;lat;lon;timestamp;pressure;altitude;pressure_sealevel;temperature;humidity
66486;BME280;53303;47.476;8.084;2023-12-28T00:01:33;95567.50;;;18.17;43.08
66486;BME280;53303;47.476;8.084;2023-12-28T00:03:58;95574.00;;;18.14;43.13
66486;BME280;53303;47.476;8.084;2023-12-28T00:06:26;95573.78;;;18.17;42.99
66486;BME280;53303;47.476;8.084;2023-12-28T00:08:52;95573.50;;;18.15;43.11
66486;BME280;53303;47.476;8.084;2023-12-28T00:11:17;95578.56;;;18.17;43.27
66486;BME280;53303;47.476;8.084;2023-12-28T00:13:42;95571.47;;;18.10;43.14
66486;BME280;53303;47.476;8.084;2023-12-28T00:16:08;95584.06;;;18.17;43.07
66486;BME280;53303;47.476;8.084;2023-12-28T00:18:38;95583.28;;;18.16;43.35
66486;BME280;53303;47.476;8.084;2023-12-28T00:21:03;95584.78;;;18.12;43.15
66486;BME280;53303;47.476;8.084;2023-12-28T00:23:29;95584.03;;;18.11;43.34
66486;BME280;53303;47.476;8.084;2023-12-28T00:25:54;95588.28;;;18.12;43.42
66486;BME280;53303;47.476;8.084;2023-12-28T00:28:19;95583.25;;;18.11;43.14
66486;BME280;53303;47.476;8.084;2023-12-28T00:30:47;95593.81;;;18.12;43.13
66486;BME280;53303;47.476;8.084;2023-12-28T00:33:12;95599.59;;;18.14;43.03
66486;BME280;53303;47.476;8.084;2023-12-28T00:35:38;95580.72;;;18.07;42.99
66486;BME280;53303;47.476;8.084;2023-12-28T00:38:06;95595.59;;;18.15;43.19
66486;BME280;53303;47.476;8.084;2023-12-28T00:40:31;95586.78;;;18.11;43.14
66486;BME280;53303;47.476;8.084;2023-12-28T00:42:56;95584.31;;;18.13;43.17
66486;BME280;53303;47.476;8.084;2023-12-28T00:45:22;95579.53;;;18.14;43.17
66486;BME280;53303;47.476;8.084;2023-12-28T00:47:47;95573.75;;;18.12;43.34
66486;BME280;53303;47.476;8.084;2023-12-28T00:50:12;95573.69;;;18.06;43.76
66486;BME280;53303;47.476;8.084;2023-12-28T00:52:40;95582.72;;;18.06;43.32
66486;BME280;53303;47.476;8.084;2023-12-28T00:55:06;95594.03;;;18.08;43.17
66486;BME280;53303;47.476;8.084;2023-12-28T00:57:33;95556.50;;;17.91;43.01
66486;BME280;53303;47.476;8.084;2023-12-28T01:00:00;95573.47;;;18.10;43.29
66486;BME280;53303;47.476;8.084;2023-12-28T01:02:29;95589.25;;;18.09;43.35
66486;BME280;53303;47.476;8.084;2023-12-28T01:04:54;95583.00;;;18.08;43.41
66486;BME280;53303;47.476;8.084;2023-12-28T01:07:20;95585.22;;;18.04;43.14
66486;BME280;53303;47.476;8.084;2023-12-28T01:09:45;95595.81;;;18.12;43.50
66486;BME280;53303;47.476;8.084;2023-12-28T01:12:13;95599.81;;;18.11;43.50
66486;BME280;53303;47.476;8.084;2023-12-28T01:14:38;95604.59;;;18.10;43.48
66486;BME280;53303;47.476;8.084;2023-12-28T01:17:06;95589.00;;;18.07;43.24
66486;BME280;53303;47.476;8.084;2023-12-28T01:19:31;95601.84;;;18.10;43.41
66486;BME280;53303;47.476;8.084;2023-12-28T01:21:59;95588.75;;;18.05;43.35
66486;BME280;53303;47.476;8.084;2023-12-28T01:24:27;95593.03;;;18.06;43.13
66486;BME280;53303;47.476;8.084;2023-12-28T01:26:55;95589.72;;;18.02;43.30
66486;BME280;53303;47.476;8.084;2023-12-28T01:29:25;95598.81;;;18.08;43.35
66486;BME280;53303;47.476;8.084;2023-12-28T01:31:52;95588.75;;;18.05;43.64
66486;BME280;53303;47.476;8.084;2023-12-28T01:34:18;95593.75;;;18.01;43.34
66486;BME280;53303;47.476;8.084;2023-12-28T01:36:48;95615.59;;;18.04;43.43
66486;BME280;53303;47.476;8.084;2023-12-28T01:39:16;95609.03;;;18.02;43.45
66486;BME280;53303;47.476;8.084;2023-12-28T01:41:44;95622.13;;;18.07;43.22
66486;BME280;53303;47.476;8.084;2023-12-28T01:44:11;95631.69;;;18.06;43.34
66486;BME280;53303;47.476;8.084;2023-12-28T01:46:37;95622.84;;;18.02;43.43
66486;BME280;53303;47.476;8.084;2023-12-28T01:49:03;95628.16;;;18.05;43.29
66486;BME280;53303;47.476;8.084;2023-12-28T01:51:30;95618.59;;;18.01;43.67
66486;BME280;53303;47.476;8.084;2023-12-28T01:53:57;95631.69;;;18.06;43.47
66486;BME280;53303;47.476;8.084;2023-12-28T01:56:23;95625.94;;;18.10;43.44
66486;BME280;53303;47.476;8.084;2023-12-28T01:58:49;95618.91;;;18.08;43.52
66486;BME280;53303;47.476;8.084;2023-12-28T02:01:20;95613.31;;;18.03;43.41
66486;BME280;53303;47.476;8.084;2023-12-28T02:03:45;95612.84;;;18.04;43.57
66486;BME280;53303;47.476;8.084;2023-12-28T02:06:13;95623.66;;;18.08;43.20
66486;BME280;53303;47.476;8.084;2023-12-28T02:08:43;95635.47;;;18.08;43.50
66486;BME280;53303;47.476;8.084;2023-12-28T02:11:09;95640.47;;;18.04;43.41
66486;BME280;53303;47.476;8.084;2023-12-28T02:13:34;95653.50;;;18.04;43.42
66486;BME280;53303;47.476;8.084;2023-12-28T02:16:30;95660.28;;;18.03;43.55
66486;BME280;53303;47.476;8.084;2023-12-28T02:19:00;95657.78;;;18.05;43.51
66486;BME280;53303;47.476;8.084;2023-12-28T02:21:31;95659.78;;;18.04;43.48
66486;BME280;53303;47.476;8.084;2023-12-28T02:23:56;95662.00;;;18.00;43.49
66486;BME280;53303;47.476;8.084;2023-12-28T02:26:22;95666.06;;;18.05;43.34
66486;BME280;53303;47.476;8.084;2023-12-28T02:28:47;95660.28;;;18.03;43.51
66486;BME280;53303;47.476;8.084;2023-12-28T02:31:39;95661.28;;;18.05;43.39
66486;BME280;53303;47.476;8.084;2023-12-28T02:34:10;95653.22;;;18.02;43.80
66486;BME280;53303;47.476;8.084;2023-12-28T02:36:41;95660.53;;;18.05;43.32
66486;BME280;53303;47.476;8.084;2023-12-28T02:39:11;95657.78;;;18.05;43.53
66486;BME280;53303;47.476;8.084;2023-12-28T02:41:43;95663.28;;;18.05;43.47
66486;BME280;53303;47.476;8.084;2023-12-28T02:44:09;95642.38;;;17.98;43.56
66486;BME280;53303;47.476;8.084;2023-12-28T02:46:37;95646.19;;;18.01;43.45
66486;BME280;53303;47.476;8.084;2023-12-28T02:49:03;95646.19;;;18.01;43.48
66486;BME280;53303;47.476;8.084;2023-12-28T02:51:28;95626.59;;;17.99;43.40
66486;BME280;53303;47.476;8.084;2023-12-28T02:53:56;95637.56;;;17.93;43.40
66486;BME280;53303;47.476;8.084;2023-12-28T02:56:23;95646.94;;;18.01;43.47
66486;BME280;53303;47.476;8.084;2023-12-28T02:58:49;95647.22;;;18.03;43.53
66486;BME280;53303;47.476;8.084;2023-12-28T03:01:14;95636.59;;;17.96;43.57
66486;BME280;53303;47.476;8.084;2023-12-28T03:03:39;95642.38;;;17.98;43.38
66486;BME280;53303;47.476;8.084;2023-12-28T03:06:05;95640.06;;;17.91;43.41
66486;BME280;53303;47.476;8.084;2023-12-28T03:08:30;95653.72;;;18.00;43.39
66486;BME280;53303;47.476;8.084;2023-12-28T03:10:56;95652.69;;;17.98;43.27
66486;BME280;53303;47.476;8.084;2023-12-28T03:13:21;95646.63;;;17.94;43.45
66486;BME280;53303;47.476;8.084;2023-12-28T03:15:46;95664.00;;;18.00;43.73
66486;BME280;53303;47.476;8.084;2023-12-28T03:18:12;95670.56;;;18.02;43.50
66486;BME280;53303;47.476;8.084;2023-12-28T03:20:39;95648.09;;;17.89;43.54
66486;BME280;53303;47.476;8.084;2023-12-28T03:23:05;95662.22;;;17.97;43.55
66486;BME280;53303;47.476;8.084;2023-12-28T03:25:30;95676.09;;;18.02;43.29
66486;BME280;53303;47.476;8.084;2023-12-28T03:27:58;95658.47;;;18.00;43.46
66486;BME280;53303;47.476;8.084;2023-12-28T03:30:23;95671.53;;;17.99;43.03
66486;BME280;53303;47.476;8.084;2023-12-28T03:32:48;95670.56;;;18.02;43.52
66486;BME280;53303;47.476;8.084;2023-12-28T03:35:14;95654.69;;;17.97;43.39
66486;BME280;53303;47.476;8.084;2023-12-28T03:37:41;95665.03;;;18.02;43.53
66486;BME280;53303;47.476;8.084;2023-12-28T03:40:07;95654.00;;;18.02;43.27
66486;BME280;53303;47.476;8.084;2023-12-28T03:42:33;95668.56;;;18.03;43.31
66486;BME280;53303;47.476;8.084;2023-12-28T03:45:01;95671.31;;;18.03;43.38
66486;BME280;53303;47.476;8.084;2023-12-28T03:47:29;95665.78;;;18.03;43.34
66486;BME280;53303;47.476;8.084;2023-12-28T03:49:54;95669.78;;;18.02;43.28
66486;BME280;53303;47.476;8.084;2023-12-28T03:52:22;95660.69;;;17.96;43.49
66486;BME280;53303;47.476;8.084;2023-12-28T03:54:48;95668.03;;;17.99;43.53
66486;BME280;53303;47.476;8.084;2023-12-28T03:57:16;95656.72;;;17.97;43.48
66486;BME280;53303;47.476;8.084;2023-12-28T03:59:41;95668.28;;;18.01;43.36
66486;BME280;53303;47.476;8.084;2023-12-28T04:02:07;95653.66;;;17.95;43.18
66486;BME280;53303;47.476;8.084;2023-12-28T04:04:32;95654.44;;;17.95;43.49
66486;BME280;53303;47.476;8.084;2023-12-28T04:06:57;95657.94;;;17.96;43.61
66486;BME280;53303;47.476;8.084;2023-12-28T04:09:23;95650.91;;;17.95;43.32
66486;BME280;53303;47.476;8.084;2023-12-28T04:11:48;95641.13;;;17.94;43.30
66486;BME280;53303;47.476;8.084;2023-12-28T04:14:13;95655.19;;;17.96;43.23
66486;BME280;53303;47.476;8.084;2023-12-28T04:16:39;95661.22;;;18.00;43.37
66486;BME280;53303;47.476;8.084;2023-12-28T04:19:04;95643.59;;;17.92;43.28
66486;BME280;53303;47.476;8.084;2023-12-28T04:21:32;95648.91;;;17.95;43.43
66486;BME280;53303;47.476;8.084;2023-12-28T04:23:57;95623.88;;;17.78;43.36
66486;BME280;53303;47.476;8.084;2023-12-28T04:26:23;95654.22;;;17.99;43.29
66486;BME280;53303;47.476;8.084;2023-12-28T04:28:48;95642.38;;;17.98;43.63
66486;BME280;53303;47.476;8.084;2023-12-28T04:31:14;95642.38;;;17.98;43.70
66486;BME280;53303;47.476;8.084;2023-12-28T04:33:41;95642.09;;;17.91;43.45
66486;BME280;53303;47.476;8.084;2023-12-28T04:36:07;95636.81;;;17.93;43.37
66486;BME280;53303;47.476;8.084;2023-12-28T04:38:32;95640.41;;;17.99;43.42
66486;BME280;53303;47.476;8.084;2023-12-28T04:41:00;95642.38;;;17.98;43.10
66486;BME280;53303;47.476;8.084;2023-12-28T04:43:26;95628.53;;;17.93;43.48
66486;BME280;53303;47.476;8.084;2023-12-28T04:45:52;95635.38;;;17.97;43.36
66486;BME280;53303;47.476;8.084;2023-12-28T04:48:20;95651.44;;;17.99;43.55
66486;BME280;53303;47.476;8.084;2023-12-28T04:50:49;95644.41;;;17.98;43.57
66486;BME280;53303;47.476;8.084;2023-12-28T04:53:15;95643.16;;;17.99;43.40
66486;BME280;53303;47.476;8.084;2023-12-28T04:55:40;95641.13;;;17.94;43.47
66486;BME280;53303;47.476;8.084;2023-12-28T04:58:10;95641.63;;;17.98;43.37
66486;BME280;53303;47.476;8.084;2023-12-28T05:00:36;95633.31;;;17.92;43.60
66486;BME280;53303;47.476;8.084;2023-12-28T05:03:01;95645.94;;;17.99;43.49
66486;BME280;53303;47.476;8.084;2023-12-28T05:05:29;95643.16;;;17.99;43.54
66486;BME280;53303;47.476;8.084;2023-12-28T05:07:54;95635.09;;;17.95;43.82
66486;BME280;53303;47.476;8.084;2023-12-28T05:10:19;95628.06;;;17.94;43.76
66486;BME280;53303;47.476;8.084;2023-12-28T05:12:45;95638.19;;;18.03;43.22
66486;BME280;53303;47.476;8.084;2023-12-28T05:15:12;95632.59;;;17.97;42.04
66486;BME280;53303;47.476;8.084;2023-12-28T05:17:38;95621.84;;;17.99;42.10
66486;BME280;53303;47.476;8.084;2023-12-28T05:20:04;95614.78;;;17.98;41.92
66486;BME280;53303;47.476;8.084;2023-12-28T05:22:29;95618.53;;;17.95;41.92
66486;BME280;53303;47.476;8.084;2023-12-28T05:24:54;95629.63;;;18.01;41.62
66486;BME280;53303;47.476;8.084;2023-12-28T05:27:20;95622.81;;;17.96;41.85
66486;BME280;53303;47.476;8.084;2023-12-28T05:29:45;95617.28;;;17.96;41.84
66486;BME280;53303;47.476;8.084;2023-12-28T05:32:11;95617.28;;;17.96;41.72
66486;BME280;53303;47.476;8.084;2023-12-28T05:34:36;95625.81;;;17.98;41.89
66486;BME280;53303;47.476;8.084;2023-12-28T05:37:04;95632.59;;;17.97;41.79
66486;BME280;53303;47.476;8.084;2023-12-28T05:39:29;95638.34;;;17.94;41.78
66486;BME280;53303;47.476;8.084;2023-12-28T05:41:54;95649.72;;;18.01;41.83
66486;BME280;53303;47.476;8.084;2023-12-28T05:44:24;95649.44;;;17.99;42.02
66486;BME280;53303;47.476;8.084;2023-12-28T05:46:52;95645.38;;;17.95;41.84
66486;BME280;53303;47.476;8.084;2023-12-28T05:49:17;95651.44;;;17.99;41.91
66486;BME280;53303;47.476;8.084;2023-12-28T05:51:43;95641.13;;;17.94;41.77
66486;BME280;53303;47.476;8.084;2023-12-28T05:54:09;95652.47;;;18.01;41.80
66486;BME280;53303;47.476;8.084;2023-12-28T05:56:39;95644.41;;;17.98;42.15
66486;BME280;53303;47.476;8.084;2023-12-28T05:59:04;95636.38;;;18.00;42.04
66486;BME280;53303;47.476;8.084;2023-12-28T06:01:30;95630.13;;;17.99;42.09
66486;BME280;53303;47.476;8.084;2023-12-28T06:03:55;95626.59;;;17.99;41.98
66486;BME280;53303;47.476;8.084;2023-12-28T06:06:20;95623.84;;;17.99;42.08
66486;BME280;53303;47.476;8.084;2023-12-28T06:08:48;95626.13;;;18.00;42.09
66486;BME280;53303;47.476;8.084;2023-12-28T06:11:17;95635.41;;;18.03;42.12
66486;BME280;53303;47.476;8.084;2023-12-28T06:13:47;95631.56;;;17.95;42.04
66486;BME280;53303;47.476;8.084;2023-12-28T06:16:13;95628.88;;;18.00;42.11
66486;BME280;53303;47.476;8.084;2023-12-28T06:18:40;95631.56;;;17.95;42.60
66486;BME280;53303;47.476;8.084;2023-12-28T06:21:08;95641.88;;;17.94;42.19
66486;BME280;53303;47.476;8.084;2023-12-28T06:23:33;95651.22;;;18.02;42.23
66486;BME280;53303;47.476;8.084;2023-12-28T06:26:04;95643.16;;;17.99;42.31
66486;BME280;53303;47.476;8.084;2023-12-28T06:28:30;95657.50;;;18.03;42.29
66486;BME280;53303;47.476;8.084;2023-12-28T06:30:57;95651.44;;;17.99;42.38
66486;BME280;53303;47.476;8.084;2023-12-28T06:33:28;95632.81;;;17.94;42.48
66486;BME280;53303;47.476;8.084;2023-12-28T06:35:54;95658.25;;;18.03;42.24
66486;BME280;53303;47.476;8.084;2023-12-28T06:38:23;95656.28;;;18.04;42.29
66486;BME280;53303;47.476;8.084;2023-12-28T06:40:51;95658.25;;;18.03;42.52
66486;BME280;53303;47.476;8.084;2023-12-28T06:43:17;95664.47;;;17.98;42.44
66486;BME280;53303;47.476;8.084;2023-12-28T06:45:42;95677.84;;;18.05;42.40
66486;BME280;53303;47.476;8.084;2023-12-28T06:48:08;95686.91;;;18.06;42.39
66486;BME280;53303;47.476;8.084;2023-12-28T06:50:33;95682.09;;;18.01;42.59
66486;BME280;53303;47.476;8.084;2023-12-28T06:52:58;95682.34;;;18.03;42.49
66486;BME280;53303;47.476;8.084;2023-12-28T06:55:24;95672.28;;;18.00;42.57
66486;BME280;53303;47.476;8.084;2023-12-28T06:57:54;95684.63;;;18.04;42.42
66486;BME280;53303;47.476;8.084;2023-12-28T07:00:19;95674.06;;;18.03;42.41
66486;BME280;53303;47.476;8.084;2023-12-28T07:02:45;95664.03;;;18.05;42.37
66486;BME280;53303;47.476;8.084;2023-12-28T07:05:12;95660.06;;;18.06;42.51
66486;BME280;53303;47.476;8.084;2023-12-28T07:07:41;95663.06;;;18.08;42.57
66486;BME280;53303;47.476;8.084;2023-12-28T07:10:09;95657.78;;;18.05;42.60
66486;BME280;53303;47.476;8.084;2023-12-28T07:12:34;95647.16;;;17.98;42.68
66486;BME280;53303;47.476;8.084;2023-12-28T07:15:00;95652.94;;;18.00;42.46
66486;BME280;53303;47.476;8.084;2023-12-28T07:17:26;95666.88;;;18.11;42.87
66486;BME280;53303;47.476;8.084;2023-12-28T07:19:51;95662.53;;;18.04;42.42
66486;BME280;53303;47.476;8.084;2023-12-28T07:22:16;95663.56;;;18.07;42.40
66486;BME280;53303;47.476;8.084;2023-12-28T07:24:42;95661.84;;;18.10;42.69
66486;BME280;53303;47.476;8.084;2023-12-28T07:27:10;95666.09;;;18.11;42.62
66486;BME280;53303;47.476;8.084;2023-12-28T07:29:36;95665.88;;;18.14;42.45
66486;BME280;53303;47.476;8.084;2023-12-28T07:32:01;95665.34;;;18.10;42.83
66486;BME280;53303;47.476;8.084;2023-12-28T07:34:27;95661.84;;;18.10;42.67
66486;BME280;53303;47.476;8.084;2023-12-28T07:36:52;95671.66;;;18.16;42.68
66486;BME280;53303;47.476;8.084;2023-12-28T07:39:20;95666.94;;;18.17;42.65
66486;BME280;53303;47.476;8.084;2023-12-28T07:41:46;95643.47;;;18.06;42.56
66486;BME280;53303;47.476;8.084;2023-12-28T07:44:14;95660.91;;;18.18;42.70
66486;BME280;53303;47.476;8.084;2023-12-28T07:46:40;95671.97;;;18.18;42.42
66486;BME280;53303;47.476;8.084;2023-12-28T07:49:05;95671.19;;;18.18;42.17
66486;BME280;53303;47.476;8.084;2023-12-28T07:51:31;95667.41;;;18.15;42.71
66486;BME280;53303;47.476;8.084;2023-12-28T07:53:56;95667.91;;;18.14;42.61
66486;BME280;53303;47.476;8.084;2023-12-28T07:56:21;95658.59;;;18.11;42.48
66486;BME280;53303;47.476;8.084;2023-12-28T07:58:47;95666.72;;;18.20;42.73
66486;BME280;53303;47.476;8.084;2023-12-28T08:01:12;95652.06;;;18.14;42.49
66486;BME280;53303;47.476;8.084;2023-12-28T08:03:41;95666.22;;;18.22;42.63
66486;BME280;53303;47.476;8.084;2023-12-28T08:06:08;95647.81;;;18.13;42.47
66486;BME280;53303;47.476;8.084;2023-12-28T08:08:36;95649.09;;;18.18;42.58
66486;BME280;53303;47.476;8.084;2023-12-28T08:11:02;95622.09;;;18.01;42.61
66486;BME280;53303;47.476;8.084;2023-12-28T08:13:28;95656.19;;;18.24;42.55
66486;BME280;53303;47.476;8.084;2023-12-28T08:15:55;95665.22;;;18.25;42.54
66486;BME280;53303;47.476;8.084;2023-12-28T08:18:23;95640.06;;;18.17;42.50
66486;BME280;53303;47.476;8.084;2023-12-28T08:20:51;95658.47;;;18.26;42.44
66486;BME280;53303;47.476;8.084;2023-12-28T08:23:17;95646.19;;;18.27;42.62
66486;BME280;53303;47.476;8.084;2023-12-28T08:25:45;95652.94;;;18.26;42.41
66486;BME280;53303;47.476;8.084;2023-12-28T08:28:12;95636.31;;;18.20;42.45
66486;BME280;53303;47.476;8.084;2023-12-28T08:30:38;95655.47;;;18.30;42.79
66486;BME280;53303;47.476;8.084;2023-12-28T08:33:04;95648.38;;;18.23;42.45
66486;BME280;53303;47.476;8.084;2023-12-28T08:35:29;95651.63;;;18.21;42.38
66486;BME280;53303;47.476;8.084;2023-12-28T08:37:55;95673.56;;;18.31;42.58
66486;BME280;53303;47.476;8.084;2023-12-28T08:40:22;95666.25;;;18.27;42.53
66486;BME280;53303;47.476;8.084;2023-12-28T08:42:47;95661.22;;;18.26;42.79
66486;BME280;53303;47.476;8.084;2023-12-28T08:45:14;95665.78;;;18.29;42.54
66486;BME280;53303;47.476;8.084;2023-12-28T08:47:39;95670.81;;;18.31;42.44
66486;BME280;53303;47.476;8.084;2023-12-28T08:50:05;95667.00;;;18.28;42.48
66486;BME280;53303;47.476;8.084;2023-12-28T08:52:36;95671.84;;;18.33;42.56
66486;BME280;53303;47.476;8.084;2023-12-28T08:55:01;95662.75;;;18.27;42.49
66486;BME280;53303;47.476;8.084;2023-12-28T08:57:31;95670.53;;;18.29;42.44
66486;BME280;53303;47.476;8.084;2023-12-28T08:59:59;95688.66;;;18.35;42.54
66486;BME280;53303;47.476;8.084;2023-12-28T09:02:30;95658.69;;;18.22;42.57
66486;BME280;53303;47.476;8.084;2023-12-28T09:04:58;95684.91;;;18.33;42.37
66486;BME280;53303;47.476;8.084;2023-12-28T09:07:27;95686.94;;;18.38;42.56
66486;BME280;53303;47.476;8.084;2023-12-28T09:09:55;95679.38;;;18.33;42.45
66486;BME280;53303;47.476;8.084;2023-12-28T09:12:20;95681.56;;;18.29;42.46
66486;BME280;53303;47.476;8.084;2023-12-28T09:14:48;95700.25;;;18.39;42.63
66486;BME280;53303;47.476;8.084;2023-12-28T09:17:13;95712.81;;;18.40;42.52
66486;BME280;53303;47.476;8.084;2023-12-28T09:19:38;95716.34;;;18.41;42.53
66486;BME280;53303;47.476;8.084;2023-12-28T09:22:09;95713.31;;;18.39;42.46
66486;BME280;53303;47.476;8.084;2023-12-28T09:24:37;95721.81;;;18.35;42.41
66486;BME280;53303;47.476;8.084;2023-12-28T09:27:02;95727.38;;;18.41;42.57
66486;BME280;53303;47.476;8.084;2023-12-28T09:29:32;95709.75;;;18.33;42.52
66486;BME280;53303;47.476;8.084;2023-12-28T09:32:00;95728.06;;;18.30;42.79
66486;BME280;53303;47.476;8.084;2023-12-28T09:34:25;95732.38;;;18.37;42.64
66486;BME280;53303;47.476;8.084;2023-12-28T09:36:55;95737.44;;;18.38;42.52
66486;BME280;53303;47.476;8.084;2023-12-28T09:39:21;95730.09;;;18.35;42.38
66486;BME280;53303;47.476;8.084;2023-12-28T09:42:16;95727.59;;;18.37;42.51
66486;BME280;53303;47.476;8.084;2023-12-28T09:44:40;95733.13;;;18.37;42.41
66486;BME280;53303;47.476;8.084;2023-12-28T09:47:06;95736.25;;;18.45;42.40
66486;BME280;53303;47.476;8.084;2023-12-28T09:49:32;95727.66;;;18.43;42.61
66486;BME280;53303;47.476;8.084;2023-12-28T09:51:59;95728.16;;;18.41;42.59
66486;BME280;53303;47.476;8.084;2023-12-28T09:54:26;95710.28;;;18.37;42.61
66486;BME280;53303;47.476;8.084;2023-12-28T09:56:52;95721.16;;;18.46;42.50
66486;BME280;53303;47.476;8.084;2023-12-28T09:59:19;95715.91;;;18.48;42.49
66486;BME280;53303;47.476;8.084;2023-12-28T10:01:45;95705.63;;;18.49;42.62
66486;BME280;53303;47.476;8.084;2023-12-28T10:04:15;95704.81;;;18.42;42.70
66486;BME280;53303;47.476;8.084;2023-12-28T10:06:41;95714.41;;;18.47;42.71
66486;BME280;53303;47.476;8.084;2023-12-28T10:09:14;95705.84;;;18.45;42.53
66486;BME280;53303;47.476;8.084;2023-12-28T10:11:42;95711.91;;;18.49;42.64
66486;BME280;53303;47.476;8.084;2023-12-28T10:14:08;95695.75;;;18.42;42.67
66486;BME280;53303;47.476;8.084;2023-12-28T10:16:34;95690.00;;;18.45;42.61
66486;BME280;53303;47.476;8.084;2023-12-28T10:18:59;95696.81;;;18.50;42.65
66486;BME280;53303;47.476;8.084;2023-12-28T10:21:25;95690.28;;;18.48;42.60
66486;BME280;53303;47.476;8.084;2023-12-28T10:23:53;95685.75;;;18.50;42.63
66486;BME280;53303;47.476;8.084;2023-12-28T10:26:18;95666.59;;;18.41;42.66
66486;BME280;53303;47.476;8.084;2023-12-28T10:28:46;95675.22;;;18.49;42.54
66486;BME280;53303;47.476;8.084;2023-12-28T10:31:14;95666.88;;;18.43;42.41
66486;BME280;53303;47.476;8.084;2023-12-28T10:33:40;95670.44;;;18.49;42.46
66486;BME280;53303;47.476;8.084;2023-12-28T10:36:08;95686.53;;;18.51;42.66
66486;BME280;53303;47.476;8.084;2023-12-28T10:38:36;95692.06;;;18.51;42.62
66486;BME280;53303;47.476;8.084;2023-12-28T10:41:07;95690.06;;;18.51;42.40
66486;BME280;53303;47.476;8.084;2023-12-28T10:46:33;95695.34;;;18.55;42.51
66486;BME280;53303;47.476;8.084;2023-12-28T10:49:12;95692.09;;;18.56;42.69
66486;BME280;53303;47.476;8.084;2023-12-28T10:51:42;95684.06;;;18.58;42.55
66486;BME280;53303;47.476;8.084;2023-12-28T11:00:20;95683.81;;;18.56;42.47
66486;BME280;53303;47.476;8.084;2023-12-28T11:02:52;95667.22;;;18.56;42.45
66486;BME280;53303;47.476;8.084;2023-12-28T11:05:21;95669.03;;;18.59;42.45
66486;BME280;53303;47.476;8.084;2023-12-28T11:07:48;95674.56;;;18.59;42.71
66486;BME280;53303;47.476;8.084;2023-12-28T11:10:18;95676.31;;;18.62;42.61
66486;BME280;53303;47.476;8.084;2023-12-28T11:12:47;95680.13;;;18.65;42.57
66486;BME280;53303;47.476;8.084;2023-12-28T11:15:17;95664.25;;;18.60;42.65
66486;BME280;53303;47.476;8.084;2023-12-28T11:17:43;95672.09;;;18.67;42.59
66486;BME280;53303;47.476;8.084;2023-12-28T11:20:09;95664.28;;;18.65;42.67
66486;BME280;53303;47.476;8.084;2023-12-28T11:22:35;95669.09;;;18.71;42.62
66486;BME280;53303;47.476;8.084;2023-12-28T11:25:01;95671.84;;;18.71;42.75
66486;BME280;53303;47.476;8.084;2023-12-28T11:27:34;95671.84;;;18.71;42.63
66486;BME280;53303;47.476;8.084;2023-12-28T11:29:59;95667.84;;;18.72;42.65
66486;BME280;53303;47.476;8.084;2023-12-28T11:32:27;95658.53;;;18.69;42.63
66486;BME280;53303;47.476;8.084;2023-12-28T11:34:57;95665.34;;;18.74;42.76
66486;BME280;53303;47.476;8.084;2023-12-28T11:37:23;95669.63;;;18.75;42.70
66486;BME280;53303;47.476;8.084;2023-12-28T11:39:51;95666.59;;;18.73;42.66
66486;BME280;53303;47.476;8.084;2023-12-28T11:42:22;95653.75;;;18.70;42.70
66486;BME280;53303;47.476;8.084;2023-12-28T11:44:53;95651.28;;;18.72;42.71
66486;BME280;53303;47.476;8.084;2023-12-28T11:47:23;95663.84;;;18.78;42.71
66486;BME280;53303;47.476;8.084;2023-12-28T11:49:52;95655.03;;;18.74;42.81
66486;BME280;53303;47.476;8.084;2023-12-28T11:54:58;95661.88;;;18.79;42.57
66486;BME280;53303;47.476;8.084;2023-12-28T11:57:24;95651.56;;;18.79;42.66
66486;BME280;53303;47.476;8.084;2023-12-28T12:00:00;95657.84;;;18.80;42.79
66486;BME280;53303;47.476;8.084;2023-12-28T12:02:27;95660.91;;;18.82;42.69
66486;BME280;53303;47.476;8.084;2023-12-28T12:04:56;95650.03;;;18.78;42.79
66486;BME280;53303;47.476;8.084;2023-12-28T12:07:24;95661.34;;;18.80;42.66
66486;BME280;53303;47.476;8.084;2023-12-28T12:10:00;95657.09;;;18.79;42.70
66486;BME280;53303;47.476;8.084;2023-12-28T12:12:25;95653.06;;;18.80;42.66
66486;BME280;53303;47.476;8.084;2023-12-28T12:14:51;95624.84;;;18.65;42.97
66486;BME280;53303;47.476;8.084;2023-12-28T12:17:17;95651.34;;;18.83;42.71
66486;BME280;53303;47.476;8.084;2023-12-28T12:19:44;95661.16;;;18.84;42.62
66486;BME280;53303;47.476;8.084;2023-12-28T12:22:10;95659.38;;;18.81;42.64
66486;BME280;53303;47.476;8.084;2023-12-28T12:24:36;95644.00;;;18.74;42.54
66486;BME280;53303;47.476;8.084;2023-12-28T12:27:02;95665.44;;;18.85;42.65
66486;BME280;53303;47.476;8.084;2023-12-28T12:29:30;95651.34;;;18.83;42.59
66486;BME280;53303;47.476;8.084;2023-12-28T12:31:56;95645.34;;;18.85;42.76
66486;BME280;53303;47.476;8.084;2023-12-28T12:34:22;95654.91;;;18.89;42.53
66486;BME280;53303;47.476;8.084;2023-12-28T12:36:47;95643.06;;;18.83;42.75
66486;BME280;53303;47.476;8.084;2023-12-28T12:39:14;95643.81;;;18.83;42.78
66486;BME280;53303;47.476;8.084;2023-12-28T12:41:39;95652.66;;;18.88;42.59
66486;BME280;53303;47.476;8.084;2023-12-28T12:44:05;95647.31;;;18.84;42.55
66486;BME280;53303;47.476;8.084;2023-12-28T12:46:31;95641.81;;;18.84;42.72
66486;BME280;53303;47.476;8.084;2023-12-28T12:49:00;95654.41;;;18.91;42.77
66486;BME280;53303;47.476;8.084;2023-12-28T12:51:29;95660.72;;;18.91;42.81
66486;BME280;53303;47.476;8.084;2023-12-28T12:54:00;95655.91;;;18.86;42.84
66486;BME280;53303;47.476;8.084;2023-12-28T12:56:26;95649.28;;;18.78;42.97
66486;BME280;53303;47.476;8.084;2023-12-28T12:58:53;95650.88;;;18.85;42.90
66486;BME280;53303;47.476;8.084;2023-12-28T13:01:22;95643.59;;;18.87;42.78
66486;BME280;53303;47.476;8.084;2023-12-28T13:03:48;95648.63;;;18.89;43.13
66486;BME280;53303;47.476;8.084;2023-12-28T13:06:13;95647.63;;;18.92;42.73
66486;BME280;53303;47.476;8.084;2023-12-28T13:08:38;95606.03;;;18.75;42.79
66486;BME280;53303;47.476;8.084;2023-12-28T13:11:04;95613.72;;;18.91;42.90